Time;durP1;ratioP1;P1;durP2;ratioP2;P2;SDS_P1;SDS_P2;PMS_P1;PMS_P2;Temp;Humidity;BMP_temperature;BMP_pressure;BME280_temperature;BME280_humidity;BME280_pressure;Samples;Min_cycle;Max_cycle;Signal;HPM_P1;HPM_P2
2023/08/12 00:00:29;;;;;;;14.35;4.18;;;;;;;;;;5054445;28;20009;-29
2023/08/12 00:02:54;;;;;;;11.10;3.78;;;;;;;;;;5054440;28;20021;-29
2023/08/12 00:05:20;;;;;;;13.98;3.83;;;;;;;;;;5054652;28;20104;-29
2023/08/12 00:07:45;;;;;;;8.70;4.13;;;;;;;;;;5055158;28;20452;-29
2023/08/12 00:10:11;;;;;;;9.90;3.53;;;;;;;;;;5054155;28;20060;-29
2023/08/12 00:12:36;;;;;;;11.25;4.18;;;;;;;;;;5053910;28;20079;-29
2023/08/12 00:15:02;;;;;;;7.55;4.00;;;;;;;;;;5053957;28;20035;-29
2023/08/12 00:17:28;;;;;;;8.55;4.05;;;;;;;;;;5054036;28;20014;-29
2023/08/12 00:19:53;;;;;;;12.00;4.13;;;;;;;;;;5054420;28;20363;-29
2023/08/12 00:22:18;;;;;;;7.13;3.80;;;;;;;;;;5053879;28;20772;-27
2023/08/12 00:24:44;;;;;;;10.20;3.92;;;;;;;;;;5053810;28;20024;-27
2023/08/12 00:27:09;;;;;;;7.65;3.92;;;;;;;;;;5053637;28;20095;-27
2023/08/12 00:29:35;;;;;;;9.93;4.47;;;;;;;;;;5053639;28;20029;-27
2023/08/12 00:32:00;;;;;;;9.85;4.18;;;;;;;;;;5054185;28;20017;-27
2023/08/12 00:34:25;;;;;;;12.57;4.47;;;;;;;;;;5053588;28;20511;-26
2023/08/12 00:36:51;;;;;;;14.40;5.30;;;;;;;;;;5053633;28;20020;-26
2023/08/12 00:39:16;;;;;;;10.30;4.90;;;;;;;;;;5053582;28;20607;-26
2023/08/12 00:41:41;;;;;;;12.40;4.60;;;;;;;;;;5053528;28;20243;-26
2023/08/12 00:44:06;;;;;;;11.70;5.20;;;;;;;;;;5054012;28;20029;-26
2023/08/12 00:46:32;;;;;;;14.63;5.23;;;;;;;;;;5051419;28;20309;-26
2023/08/12 00:48:57;;;;;;;13.85;5.15;;;;;;;;;;5053979;28;20251;-27
2023/08/12 00:51:22;;;;;;;11.47;5.20;;;;;;;;;;5053384;28;20052;-26
2023/08/12 00:53:49;;;;;;;11.23;5.50;;;;;;;;;;5053833;28;20275;-26
2023/08/12 00:56:15;;;;;;;13.73;4.80;;;;;;;;;;5053588;28;20663;-26
2023/08/12 00:58:41;;;;;;;12.55;5.22;;;;;;;;;;5053332;28;20357;-26
2023/08/12 01:01:07;;;;;;;9.70;4.85;;;;;;;;;;5053518;28;20021;-26
2023/08/12 01:03:32;;;;;;;11.40;5.50;;;;;;;;;;5053213;28;20043;-26
2023/08/12 01:05:57;;;;;;;16.27;5.90;;;;;;;;;;5053242;28;20021;-26
2023/08/12 01:08:28;;;;;;;12.52;6.00;;;;;;;;;;5053244;28;20292;-26
2023/08/12 01:10:58;;;;;;;14.32;5.70;;;;;;;;;;5053094;28;20040;-27
2023/08/12 01:13:32;;;;;;;14.07;6.28;;;;;;;;;;5053049;28;20505;-27
2023/08/12 01:15:58;;;;;;;14.07;6.10;;;;;;;;;;5053229;28;20024;-27
2023/08/12 01:18:24;;;;;;;13.00;6.03;;;;;;;;;;5053186;28;20029;-27
2023/08/12 01:20:49;;;;;;;13.18;6.10;;;;;;;;;;5053147;28;20063;-27
2023/08/12 01:23:14;;;;;;;18.70;6.90;;;;;;;;;;5053116;28;20036;-27
2023/08/12 01:25:40;;;;;;;11.95;6.78;;;;;;;;;;5053068;28;20029;-27
2023/08/12 01:28:06;;;;;;;19.35;7.28;;;;;;;;;;5053354;28;20021;-27
2023/08/12 01:30:32;;;;;;;19.85;6.78;;;;;;;;;;5053268;28;20021;-27
2023/08/12 01:33:06;;;;;;;16.73;6.78;;;;;;;;;;5052886;28;20048;-27
2023/08/12 01:35:34;;;;;;;14.35;6.65;;;;;;;;;;5053288;28;20067;-27
2023/08/12 01:38:00;;;;;;;18.35;7.18;;;;;;;;;;5052928;28;20027;-27
2023/08/12 01:40:28;;;;;;;15.10;6.15;;;;;;;;;;5053218;28;20104;-27
2023/08/12 01:42:53;;;;;;;18.27;6.85;;;;;;;;;;5052959;28;20495;-27
2023/08/12 01:45:19;;;;;;;15.83;6.93;;;;;;;;;;5052948;28;20020;-27
2023/08/12 01:47:44;;;;;;;16.45;6.53;;;;;;;;;;5053162;28;20266;-27
2023/08/12 01:50:09;;;;;;;15.35;6.40;;;;;;;;;;5052935;28;20480;-27
2023/08/12 01:52:35;;;;;;;16.27;6.90;;;;;;;;;;5052839;28;20021;-27
2023/08/12 01:55:00;;;;;;;14.55;6.50;;;;;;;;;;5052776;28;20025;-27
2023/08/12 01:57:25;;;;;;;14.40;6.30;;;;;;;;;;5051584;28;20517;-27
2023/08/12 01:59:51;;;;;;;13.80;6.13;;;;;;;;;;5056757;28;20247;-27
2023/08/12 02:02:16;;;;;;;17.90;6.18;;;;;;;;;;5056472;28;20263;-27
2023/08/12 02:04:42;;;;;;;13.18;6.10;;;;;;;;;;5056677;28;20017;-27
2023/08/12 02:07:08;;;;;;;13.32;6.45;;;;;;;;;;5056742;28;20057;-27
2023/08/12 02:09:33;;;;;;;15.27;6.72;;;;;;;;;;5056374;28;20431;-26
2023/08/12 02:11:58;;;;;;;13.88;6.95;;;;;;;;;;5056191;28;20045;-26
2023/08/12 02:14:24;;;;;;;16.50;6.65;;;;;;;;;;5056099;28;20361;-26
2023/08/12 02:16:49;;;;;;;13.97;6.80;;;;;;;;;;5056237;28;20095;-27
2023/08/12 02:19:14;;;;;;;15.13;7.20;;;;;;;;;;5056481;28;20489;-26
2023/08/12 02:21:39;;;;;;;16.38;7.18;;;;;;;;;;5056164;28;20256;-26
2023/08/12 02:24:05;;;;;;;16.83;7.10;;;;;;;;;;5056127;28;20074;-27
2023/08/12 02:26:30;;;;;;;13.60;6.63;;;;;;;;;;5056599;28;20064;-26
2023/08/12 02:28:56;;;;;;;14.73;7.03;;;;;;;;;;5055942;28;20043;-26
2023/08/12 02:31:21;;;;;;;18.63;7.43;;;;;;;;;;5055896;28;20079;-26
2023/08/12 02:33:46;;;;;;;13.83;7.13;;;;;;;;;;5056386;28;20271;-26
2023/08/12 02:36:11;;;;;;;14.47;7.10;;;;;;;;;;5055885;28;20715;-26
2023/08/12 02:38:36;;;;;;;18.23;7.70;;;;;;;;;;5056367;28;20103;-26
2023/08/12 02:41:02;;;;;;;21.77;7.53;;;;;;;;;;5055802;28;20522;-26
2023/08/12 02:43:27;;;;;;;21.17;7.80;;;;;;;;;;5055930;28;20028;-26
2023/08/12 02:45:52;;;;;;;12.67;7.63;;;;;;;;;;5056182;28;20021;-26
2023/08/12 02:48:17;;;;;;;18.52;8.02;;;;;;;;;;5056187;28;20251;-26
2023/08/12 02:50:42;;;;;;;20.27;9.13;;;;;;;;;;5056156;28;20040;-26
2023/08/12 02:53:08;;;;;;;20.80;8.93;;;;;;;;;;5055726;28;20279;-26
2023/08/12 02:55:33;;;;;;;19.98;8.75;;;;;;;;;;5055493;28;20017;-26
2023/08/12 02:57:59;;;;;;;20.45;9.60;;;;;;;;;;5055744;28;20462;-27
2023/08/12 03:00:24;;;;;;;22.83;9.90;;;;;;;;;;5055432;28;20044;-27
2023/08/12 03:02:49;;;;;;;29.00;10.53;;;;;;;;;;5055437;28;20020;-26
2023/08/12 03:05:15;;;;;;;19.80;9.77;;;;;;;;;;5055372;28;20626;-26
2023/08/12 03:07:40;;;;;;;17.80;9.65;;;;;;;;;;5055189;28;20266;-26
2023/08/12 03:10:05;;;;;;;21.17;10.07;;;;;;;;;;5054712;28;20041;-26
2023/08/12 03:12:31;;;;;;;19.42;10.10;;;;;;;;;;5055275;28;20088;-26
2023/08/12 03:14:56;;;;;;;23.00;10.33;;;;;;;;;;5055119;28;20036;-27
2023/08/12 03:17:21;;;;;;;20.77;10.00;;;;;;;;;;5055155;28;20021;-26
2023/08/12 03:19:46;;;;;;;21.80;9.87;;;;;;;;;;5055068;28;20017;-26
2023/08/12 03:22:11;;;;;;;25.80;10.30;;;;;;;;;;5054963;28;20259;-26
2023/08/12 03:24:37;;;;;;;24.03;10.37;;;;;;;;;;5055543;28;20267;-26
2023/08/12 03:27:02;;;;;;;17.67;9.53;;;;;;;;;;5054958;28;20383;-26
2023/08/12 03:29:27;;;;;;;23.17;10.57;;;;;;;;;;5054869;28;20096;-26
2023/08/12 03:31:52;;;;;;;16.77;9.23;;;;;;;;;;5054759;28;20410;-26
2023/08/12 03:34:17;;;;;;;19.27;9.65;;;;;;;;;;5054988;28;20032;-26
2023/08/12 03:36:43;;;;;;;24.38;10.32;;;;;;;;;;5054719;28;20547;-27
2023/08/12 03:39:08;;;;;;;22.85;10.15;;;;;;;;;;5054607;28;20357;-27
2023/08/12 03:41:34;;;;;;;22.80;10.23;;;;;;;;;;5055195;28;20021;-26
2023/08/12 03:43:59;;;;;;;21.73;9.75;;;;;;;;;;5054896;28;20302;-27
2023/08/12 03:46:24;;;;;;;23.63;10.50;;;;;;;;;;5054545;28;20017;-27
2023/08/12 03:48:49;;;;;;;21.48;10.57;;;;;;;;;;5054419;28;20017;-27
2023/08/12 03:51:15;;;;;;;21.83;10.05;;;;;;;;;;5054995;28;20025;-27
2023/08/12 03:53:40;;;;;;;20.00;10.60;;;;;;;;;;5054576;28;20075;-27
2023/08/12 03:56:05;;;;;;;24.20;10.77;;;;;;;;;;5054966;28;20017;-26
2023/08/12 03:58:30;;;;;;;24.58;10.95;;;;;;;;;;5054037;28;20418;-27
2023/08/12 04:00:55;;;;;;;20.53;10.37;;;;;;;;;;5053761;28;20013;-27
2023/08/12 04:03:21;;;;;;;19.97;10.07;;;;;;;;;;5053717;28;20406;-28
2023/08/12 04:05:52;;;;;;;18.30;10.80;;;;;;;;;;5053949;28;20086;-27
2023/08/12 04:08:26;;;;;;;23.55;10.63;;;;;;;;;;5053874;28;20602;-27
2023/08/12 04:10:51;;;;;;;23.45;11.25;;;;;;;;;;5053551;28;20049;-27
2023/08/12 04:13:17;;;;;;;22.02;11.38;;;;;;;;;;5053580;28;20029;-27
2023/08/12 04:15:42;;;;;;;24.03;11.97;;;;;;;;;;5054607;28;20202;-27
2023/08/12 04:18:07;;;;;;;23.80;10.70;;;;;;;;;;5054498;28;20286;-27
2023/08/12 04:20:32;;;;;;;22.87;11.17;;;;;;;;;;5054020;28;20075;-27
2023/08/12 04:22:58;;;;;;;25.17;11.37;;;;;;;;;;5053621;28;20251;-27
2023/08/12 04:25:23;;;;;;;22.20;11.80;;;;;;;;;;5054059;28;20047;-27
2023/08/12 04:27:49;;;;;;;22.20;11.30;;;;;;;;;;5054068;28;20251;-27
2023/08/12 04:30:15;;;;;;;21.02;11.77;;;;;;;;;;5054105;28;20032;-27
2023/08/12 04:32:40;;;;;;;21.80;11.57;;;;;;;;;;5053724;28;20020;-27
2023/08/12 04:35:06;;;;;;;24.10;12.35;;;;;;;;;;5053931;28;20460;-27
2023/08/12 04:37:32;;;;;;;23.35;11.45;;;;;;;;;;5053550;28;20039;-27
2023/08/12 04:39:57;;;;;;;21.58;11.93;;;;;;;;;;5053893;28;20047;-27
2023/08/12 04:42:22;;;;;;;24.35;12.25;;;;;;;;;;5053601;28;20024;-26
2023/08/12 04:44:47;;;;;;;24.80;11.63;;;;;;;;;;5053791;28;20025;-27
2023/08/12 04:47:13;;;;;;;20.53;11.33;;;;;;;;;;5053552;28;20278;-27
2023/08/12 04:49:38;;;;;;;25.42;11.68;;;;;;;;;;5053738;28;20047;-27
2023/08/12 04:52:04;;;;;;;21.42;11.45;;;;;;;;;;5053415;28;20013;-27
2023/08/12 04:54:29;;;;;;;22.27;11.65;;;;;;;;;;5053397;28;20025;-27
2023/08/12 04:56:56;;;;;;;22.80;11.43;;;;;;;;;;5053450;28;20024;-27
2023/08/12 04:59:21;;;;;;;18.23;11.05;;;;;;;;;;5053720;28;20013;-27
2023/08/12 05:01:47;;;;;;;23.08;11.82;;;;;;;;;;5053288;28;20017;-27
2023/08/12 05:04:12;;;;;;;29.58;11.82;;;;;;;;;;5053325;28;20060;-27
2023/08/12 05:06:37;;;;;;;23.30;11.40;;;;;;;;;;5053902;28;20024;-27
2023/08/12 05:09:02;;;;;;;19.40;11.10;;;;;;;;;;5053302;28;20021;-29
2023/08/12 05:11:27;;;;;;;21.42;11.30;;;;;;;;;;5053072;28;20291;-27
2023/08/12 05:13:53;;;;;;;22.13;11.67;;;;;;;;;;5053730;28;20033;-27
2023/08/12 05:16:18;;;;;;;20.88;11.10;;;;;;;;;;5053490;28;20071;-27
2023/08/12 05:18:43;;;;;;;27.03;11.67;;;;;;;;;;5053258;28;20017;-27
2023/08/12 05:21:08;;;;;;;26.33;11.93;;;;;;;;;;5053431;28;20626;-27
2023/08/12 05:23:33;;;;;;;21.87;11.00;;;;;;;;;;5051876;28;20376;-27
2023/08/12 05:25:59;;;;;;;19.23;11.77;;;;;;;;;;5053375;28;20722;-27
2023/08/12 05:28:24;;;;;;;17.57;10.80;;;;;;;;;;5053084;28;20024;-27
2023/08/12 05:30:49;;;;;;;23.10;11.57;;;;;;;;;;5052972;28;20341;-27
2023/08/12 05:33:14;;;;;;;20.97;12.00;;;;;;;;;;5055361;28;20087;-27
2023/08/12 05:35:39;;;;;;;24.73;11.53;;;;;;;;;;5057079;28;20726;-27
2023/08/12 05:38:05;;;;;;;25.38;12.30;;;;;;;;;;5057264;28;20025;-27
2023/08/12 05:40:30;;;;;;;23.10;11.83;;;;;;;;;;5057468;28;20013;-27
2023/08/12 05:42:55;;;;;;;25.63;11.67;;;;;;;;;;5056887;28;20248;-27
2023/08/12 05:45:20;;;;;;;22.77;12.33;;;;;;;;;;5056829;28;20251;-27
2023/08/12 05:47:45;;;;;;;25.37;12.47;;;;;;;;;;5056844;28;20744;-27
2023/08/12 05:50:11;;;;;;;24.33;12.40;;;;;;;;;;5056776;28;20078;-27
2023/08/12 05:52:36;;;;;;;24.60;11.85;;;;;;;;;;5056692;28;20271;-27
2023/08/12 05:55:01;;;;;;;28.00;12.73;;;;;;;;;;5056541;28;20013;-27
2023/08/12 05:57:26;;;;;;;22.50;12.50;;;;;;;;;;5056644;28;20279;-27
2023/08/12 05:59:52;;;;;;;24.85;12.68;;;;;;;;;;5056611;28;20024;-27
2023/08/12 06:02:17;;;;;;;28.10;12.85;;;;;;;;;;5056529;28;20017;-27
2023/08/12 06:04:42;;;;;;;25.77;12.57;;;;;;;;;;5056545;28;20047;-27
2023/08/12 06:07:07;;;;;;;25.40;12.83;;;;;;;;;;5056444;28;20024;-27
2023/08/12 06:09:32;;;;;;;24.03;14.07;;;;;;;;;;5057016;28;20024;-27
2023/08/12 06:11:58;;;;;;;27.13;13.82;;;;;;;;;;5056033;28;20048;-26
2023/08/12 06:14:23;;;;;;;28.20;14.40;;;;;;;;;;5055532;28;20380;-27
2023/08/12 06:16:48;;;;;;;29.47;14.23;;;;;;;;;;5055606;28;20052;-27
2023/08/12 06:19:13;;;;;;;25.80;14.20;;;;;;;;;;5055559;28;20452;-27
2023/08/12 06:21:38;;;;;;;29.73;14.23;;;;;;;;;;5055484;28;20013;-27
2023/08/12 06:24:04;;;;;;;25.10;13.70;;;;;;;;;;5055455;28;20267;-27
2023/08/12 06:26:29;;;;;;;24.90;12.07;;;;;;;;;;5055391;28;20642;-27
2023/08/12 06:28:54;;;;;;;29.40;12.73;;;;;;;;;;5055899;28;20083;-27
2023/08/12 06:31:19;;;;;;;22.67;10.47;;;;;;;;;;5056490;28;20039;-27
2023/08/12 06:33:44;;;;;;;12.95;8.07;;;;;;;;;;5055858;28;20791;-26
2023/08/12 06:36:10;;;;;;;16.42;8.13;;;;;;;;;;5055932;28;20021;-27
2023/08/12 06:38:36;;;;;;;14.18;7.13;;;;;;;;;;5056120;28;20041;-27
2023/08/12 06:41:01;;;;;;;17.43;8.10;;;;;;;;;;5055802;28;20017;-27
2023/08/12 06:43:26;;;;;;;15.60;9.00;;;;;;;;;;5055496;28;20251;-27
2023/08/12 06:45:51;;;;;;;14.63;8.20;;;;;;;;;;5055242;28;20060;-27
2023/08/12 06:48:17;;;;;;;14.23;7.90;;;;;;;;;;5055657;28;20784;-27
2023/08/12 06:50:42;;;;;;;12.43;7.75;;;;;;;;;;5055630;28;20335;-26
2023/08/12 06:53:07;;;;;;;11.48;7.18;;;;;;;;;;5055819;28;20100;-26
2023/08/12 06:55:32;;;;;;;9.85;5.85;;;;;;;;;;5055541;28;20021;-26
2023/08/12 06:57:58;;;;;;;7.30;5.07;;;;;;;;;;5055531;28;20009;-26
2023/08/12 07:00:23;;;;;;;12.27;5.20;;;;;;;;;;5055699;28;20252;-26
2023/08/12 07:02:48;;;;;;;8.20;4.80;;;;;;;;;;5055409;28;20460;-26
2023/08/12 07:05:13;;;;;;;7.20;3.97;;;;;;;;;;5055919;28;20277;-26
2023/08/12 07:07:38;;;;;;;5.45;3.33;;;;;;;;;;5055848;28;20017;-26
2023/08/12 07:10:06;;;;;;;8.37;3.47;;;;;;;;;;5055142;28;20170;-27
2023/08/12 07:12:31;;;;;;;6.35;3.30;;;;;;;;;;5055243;28;20330;-26
2023/08/12 07:14:57;;;;;;;5.80;3.45;;;;;;;;;;5055380;28;20482;-26
2023/08/12 07:17:22;;;;;;;6.50;3.10;;;;;;;;;;5055158;28;20021;-27
2023/08/12 07:19:47;;;;;;;6.72;3.30;;;;;;;;;;5055036;28;20247;-26
2023/08/12 07:22:13;;;;;;;5.00;3.03;;;;;;;;;;5055039;28;20027;-26
2023/08/12 07:24:38;;;;;;;7.13;3.00;;;;;;;;;;5054975;28;20251;-27
2023/08/12 07:27:03;;;;;;;6.73;3.10;;;;;;;;;;5054989;28;20263;-27
2023/08/12 07:29:28;;;;;;;4.68;2.90;;;;;;;;;;5055362;28;20032;-27
2023/08/12 07:31:53;;;;;;;4.40;2.80;;;;;;;;;;5054866;28;20021;-27
2023/08/12 07:34:19;;;;;;;4.65;2.67;;;;;;;;;;5054719;28;20283;-27
2023/08/12 07:36:44;;;;;;;3.73;2.67;;;;;;;;;;5054585;28;20021;-27
2023/08/12 07:39:09;;;;;;;4.20;2.70;;;;;;;;;;5055451;28;20053;-27
2023/08/12 07:41:35;;;;;;;4.03;2.75;;;;;;;;;;5055178;28;20070;-27
2023/08/12 07:44:00;;;;;;;5.70;3.05;;;;;;;;;;5054623;28;20460;-26
2023/08/12 07:46:27;;;;;;;5.97;2.77;;;;;;;;;;5054564;28;20545;-27
2023/08/12 07:48:52;;;;;;;4.05;3.17;;;;;;;;;;5054520;28;20337;-27
2023/08/12 07:51:17;;;;;;;4.67;3.20;;;;;;;;;;5054409;28;20056;-28
2023/08/12 07:53:43;;;;;;;5.07;2.83;;;;;;;;;;5054882;28;20394;-27
2023/08/12 07:56:08;;;;;;;3.92;2.88;;;;;;;;;;5053854;28;20778;-27
2023/08/12 07:58:33;;;;;;;3.47;2.70;;;;;;;;;;5054613;28;20103;-27
2023/08/12 08:00:59;;;;;;;3.60;2.50;;;;;;;;;;5054553;28;20017;-27
2023/08/12 08:03:25;;;;;;;3.27;2.20;;;;;;;;;;5054238;28;20583;-27
2023/08/12 08:05:50;;;;;;;2.75;2.33;;;;;;;;;;5054116;28;20267;-27
2023/08/12 08:08:15;;;;;;;2.90;2.07;;;;;;;;;;5054677;28;20021;-27
2023/08/12 08:10:40;;;;;;;3.80;1.90;;;;;;;;;;5054331;28;20484;-27
2023/08/12 08:13:05;;;;;;;2.33;1.80;;;;;;;;;;5054231;28;20020;-27
2023/08/12 08:15:31;;;;;;;2.67;1.90;;;;;;;;;;5054016;28;20244;-27
2023/08/12 08:17:56;;;;;;;2.30;1.60;;;;;;;;;;5054484;28;20259;-27
2023/08/12 08:20:21;;;;;;;1.48;1.20;;;;;;;;;;5053874;28;20255;-27
2023/08/12 08:22:47;;;;;;;2.60;1.40;;;;;;;;;;5053941;28;20095;-27
2023/08/12 08:25:12;;;;;;;1.48;1.30;;;;;;;;;;5054136;28;20021;-27
2023/08/12 08:27:38;;;;;;;2.23;1.23;;;;;;;;;;5053817;28;20021;-27
2023/08/12 08:30:03;;;;;;;2.00;1.27;;;;;;;;;;5053963;28;20259;-27
2023/08/12 08:32:29;;;;;;;2.05;1.40;;;;;;;;;;5054208;28;20021;-27
2023/08/12 08:34:54;;;;;;;5.73;1.20;;;;;;;;;;5053612;28;20013;-27
2023/08/12 08:37:19;;;;;;;2.00;1.43;;;;;;;;;;5053707;28;20013;-27
2023/08/12 08:39:44;;;;;;;3.37;1.73;;;;;;;;;;5054176;28;20300;-27
2023/08/12 08:42:11;;;;;;;5.70;1.77;;;;;;;;;;5054179;28;20388;-27
2023/08/12 08:44:37;;;;;;;3.78;1.80;;;;;;;;;;5053783;28;20749;-27
2023/08/12 08:47:03;;;;;;;5.13;1.83;;;;;;;;;;5053799;28;20375;-27
2023/08/12 08:49:29;;;;;;;12.43;2.10;;;;;;;;;;5054057;28;20013;-27
2023/08/12 08:51:55;;;;;;;7.82;1.90;;;;;;;;;;5053446;28;20383;-27
2023/08/12 08:54:21;;;;;;;7.78;1.83;;;;;;;;;;5053377;28;20017;-27
2023/08/12 08:56:47;;;;;;;6.53;1.90;;;;;;;;;;5053368;28;20095;-26
2023/08/12 08:59:13;;;;;;;5.75;1.80;;;;;;;;;;5053415;28;20017;-26
2023/08/12 09:01:39;;;;;;;8.02;1.85;;;;;;;;;;5053670;28;20021;-27
2023/08/12 09:04:05;;;;;;;7.88;1.90;;;;;;;;;;5053614;28;20090;-26
2023/08/12 09:06:31;;;;;;;11.65;1.73;;;;;;;;;;5053185;28;20056;-26
2023/08/12 09:08:57;;;;;;;8.07;1.90;;;;;;;;;;5052979;28;20460;-26
2023/08/12 09:11:22;;;;;;;7.18;1.50;;;;;;;;;;5053187;28;20051;-27
2023/08/12 09:13:48;;;;;;;8.20;2.03;;;;;;;;;;5053476;28;20379;-26
2023/08/12 09:16:14;;;;;;;6.80;2.10;;;;;;;;;;5053477;28;20078;-27
2023/08/12 09:18:40;;;;;;;7.07;2.03;;;;;;;;;;5053769;28;20013;-26
2023/08/12 09:21:05;;;;;;;9.35;1.90;;;;;;;;;;5053141;28;20032;-26
2023/08/12 09:23:34;;;;;;;8.63;2.10;;;;;;;;;;5052922;28;20029;-26
2023/08/12 09:26:00;;;;;;;10.85;1.80;;;;;;;;;;5053616;28;20028;-26
2023/08/12 09:28:25;;;;;;;7.88;2.05;;;;;;;;;;5053157;28;20025;-26
2023/08/12 09:30:52;;;;;;;9.50;1.83;;;;;;;;;;5053016;28;20468;-26
2023/08/12 09:33:23;;;;;;;8.88;2.17;;;;;;;;;;5051769;28;20344;-26
2023/08/12 09:35:49;;;;;;;11.23;1.90;;;;;;;;;;5053007;28;20066;-26
2023/08/12 09:38:14;;;;;;;9.98;1.70;;;;;;;;;;5053053;28;20376;-27
2023/08/12 09:40:40;;;;;;;8.80;2.30;;;;;;;;;;5053327;28;20024;-27
2023/08/12 09:43:05;;;;;;;6.60;1.88;;;;;;;;;;5052983;28;20255;-27
2023/08/12 09:45:31;;;;;;;6.45;1.73;;;;;;;;;;5052982;28;20085;-27
2023/08/12 09:47:56;;;;;;;6.20;1.70;;;;;;;;;;5053533;28;20096;-27
2023/08/12 09:50:23;;;;;;;9.38;1.88;;;;;;;;;;5052938;28;20372;-27
2023/08/12 09:52:48;;;;;;;7.05;1.92;;;;;;;;;;5052844;28;20040;-27
2023/08/12 09:55:16;;;;;;;8.43;1.95;;;;;;;;;;5053034;28;20427;-27
2023/08/12 09:57:42;;;;;;;8.23;2.13;;;;;;;;;;5052756;28;20032;-27
2023/08/12 10:00:12;;;;;;;6.95;1.83;;;;;;;;;;5053864;28;20390;-27
2023/08/12 10:02:39;;;;;;;12.35;2.20;;;;;;;;;;5053079;28;20017;-27
2023/08/12 10:05:06;;;;;;;7.45;1.90;;;;;;;;;;5052775;28;20379;-27
2023/08/12 10:07:32;;;;;;;11.55;2.03;;;;;;;;;;5053424;28;20432;-27
2023/08/12 10:09:57;;;;;;;5.35;1.45;;;;;;;;;;5052554;28;20059;-27
2023/08/12 10:12:22;;;;;;;8.88;2.05;;;;;;;;;;5053244;28;20025;-27
2023/08/12 10:14:47;;;;;;;5.73;1.80;;;;;;;;;;5052588;28;20021;-27
2023/08/12 10:17:14;;;;;;;6.57;2.10;;;;;;;;;;5052655;28;20287;-27
2023/08/12 10:19:43;;;;;;;6.72;1.98;;;;;;;;;;5054119;28;20123;-27
2023/08/12 10:22:09;;;;;;;7.13;1.95;;;;;;;;;;5056488;28;20086;-27
2023/08/12 10:24:34;;;;;;;7.50;1.95;;;;;;;;;;5056405;28;20049;-27
2023/08/12 10:27:01;;;;;;;7.43;1.92;;;;;;;;;;5056427;28;20017;-27
2023/08/12 10:29:26;;;;;;;9.15;2.53;;;;;;;;;;5056606;28;20016;-27
2023/08/12 10:31:52;;;;;;;7.13;2.22;;;;;;;;;;5056734;28;20044;-27
2023/08/12 10:34:24;;;;;;;7.47;2.05;;;;;;;;;;5055875;28;20075;-27
2023/08/12 10:36:56;;;;;;;10.75;2.28;;;;;;;;;;5056507;28;20021;-27
2023/08/12 10:39:24;;;;;;;8.57;2.00;;;;;;;;;;5056403;28;20012;-27
2023/08/12 10:41:51;;;;;;;6.78;2.17;;;;;;;;;;5055746;28;20071;-27
2023/08/12 10:44:16;;;;;;;12.65;2.60;;;;;;;;;;5056117;28;20104;-27
2023/08/12 10:46:49;;;;;;;9.18;2.28;;;;;;;;;;5054524;28;20044;-28
2023/08/12 10:49:14;;;;;;;7.85;2.42;;;;;;;;;;5037777;28;20113;-27
2023/08/12 10:51:48;;;;;;;11.13;2.30;;;;;;;;;;5055676;28;20438;-27
2023/08/12 10:54:15;;;;;;;6.45;2.03;;;;;;;;;;5055813;28;20132;-27
2023/08/12 10:56:59;;;;;;;9.73;2.30;;;;;;;;;;5055741;28;20063;-27
2023/08/12 10:59:43;;;;;;;8.18;2.35;;;;;;;;;;5055443;28;20529;-27
2023/08/12 11:02:15;;;;;;;5.43;1.42;;;;;;;;;;5055389;28;20024;-27
2023/08/12 11:04:41;;;;;;;9.10;1.77;;;;;;;;;;5055699;28;20023;-27
2023/08/12 11:07:18;;;;;;;8.10;2.10;;;;;;;;;;5055829;28;20052;-27
2023/08/12 11:09:44;;;;;;;9.77;2.10;;;;;;;;;;5055146;28;20021;-27
2023/08/12 11:12:09;;;;;;;8.25;1.77;;;;;;;;;;5054866;28;20036;-27
2023/08/12 11:14:47;;;;;;;10.55;2.03;;;;;;;;;;5054917;28;20021;-27
2023/08/12 11:17:15;;;;;;;8.85;2.30;;;;;;;;;;5054704;28;20024;-27
2023/08/12 11:19:41;;;;;;;7.80;2.08;;;;;;;;;;5054967;28;20512;-27
2023/08/12 11:22:07;;;;;;;9.88;2.10;;;;;;;;;;5054562;28;20036;-27
2023/08/12 11:24:33;;;;;;;11.40;2.13;;;;;;;;;;5054476;28;20013;-27
2023/08/12 11:26:59;;;;;;;10.40;1.90;;;;;;;;;;5055131;28;20020;-27
2023/08/12 11:29:25;;;;;;;10.20;2.20;;;;;;;;;;5055236;28;20031;-27
2023/08/12 11:31:50;;;;;;;7.07;2.20;;;;;;;;;;5054447;28;20029;-27
2023/08/12 11:34:16;;;;;;;11.45;2.17;;;;;;;;;;5053567;28;20353;-35
2023/08/12 11:36:42;;;;;;;6.95;2.10;;;;;;;;;;5053552;28;20025;-28
2023/08/12 11:39:07;;;;;;;9.48;2.47;;;;;;;;;;5054768;28;20017;-27
2023/08/12 11:41:33;;;;;;;6.13;2.13;;;;;;;;;;5054613;28;20190;-27
2023/08/12 11:43:58;;;;;;;6.55;1.92;;;;;;;;;;5055196;28;20035;-27
2023/08/12 11:46:24;;;;;;;10.60;2.20;;;;;;;;;;5055106;28;20021;-27
2023/08/12 11:48:50;;;;;;;9.70;2.63;;;;;;;;;;5054524;28;20020;-26
2023/08/12 11:51:15;;;;;;;15.87;2.60;;;;;;;;;;5054966;28;20024;-27
2023/08/12 11:53:40;;;;;;;12.43;2.63;;;;;;;;;;5054350;28;20284;-26
2023/08/12 11:56:05;;;;;;;11.10;2.22;;;;;;;;;;5054821;28;20316;-26
2023/08/12 11:58:37;;;;;;;11.73;2.65;;;;;;;;;;5054834;28;20040;-27
2023/08/12 12:01:02;;;;;;;9.43;2.30;;;;;;;;;;5054578;28;20469;-27
2023/08/12 12:03:28;;;;;;;10.95;2.25;;;;;;;;;;5054731;28;20063;-27
2023/08/12 12:05:55;;;;;;;7.82;2.13;;;;;;;;;;5054355;28;20025;-26
2023/08/12 12:08:20;;;;;;;9.77;2.42;;;;;;;;;;5054124;28;20463;-27
2023/08/12 12:10:47;;;;;;;8.98;2.28;;;;;;;;;;5054340;28;20131;-27
2023/08/12 12:13:14;;;;;;;10.40;2.38;;;;;;;;;;5054255;28;20031;-27
2023/08/12 12:15:43;;;;;;;10.85;2.17;;;;;;;;;;5054274;28;20395;-27
2023/08/12 12:18:12;;;;;;;9.52;2.25;;;;;;;;;;5053878;28;20099;-27
2023/08/12 12:20:41;;;;;;;9.02;2.40;;;;;;;;;;5054230;28;20017;-27
2023/08/12 12:23:07;;;;;;;10.73;2.30;;;;;;;;;;5053832;28;20043;-27
2023/08/12 12:25:32;;;;;;;11.38;2.40;;;;;;;;;;5053899;28;20017;-27
2023/08/12 12:27:57;;;;;;;9.00;2.30;;;;;;;;;;5053784;28;20049;-27
2023/08/12 12:30:22;;;;;;;10.67;2.50;;;;;;;;;;5054010;28;20244;-27
2023/08/12 12:32:48;;;;;;;9.20;2.20;;;;;;;;;;5053688;28;20330;-27
2023/08/12 12:35:13;;;;;;;7.18;2.13;;;;;;;;;;5053865;28;20379;-27
2023/08/12 12:37:39;;;;;;;10.50;2.40;;;;;;;;;;5054210;28;20025;-27
2023/08/12 12:40:07;;;;;;;10.68;2.38;;;;;;;;;;5053566;28;20427;-27
2023/08/12 12:42:32;;;;;;;10.80;2.33;;;;;;;;;;5051676;28;20086;-27
2023/08/12 12:44:57;;;;;;;10.20;2.28;;;;;;;;;;5053421;28;20013;-27
2023/08/12 12:47:23;;;;;;;9.33;2.20;;;;;;;;;;5053532;28;20021;-27
2023/08/12 12:49:48;;;;;;;12.63;2.45;;;;;;;;;;5053984;28;20021;-27
2023/08/12 12:52:13;;;;;;;9.90;2.70;;;;;;;;;;5053961;28;20131;-27
2023/08/12 12:54:38;;;;;;;11.77;2.50;;;;;;;;;;5053873;28;20013;-27
2023/08/12 12:57:03;;;;;;;8.43;2.30;;;;;;;;;;5053419;28;20028;-27
2023/08/12 12:59:29;;;;;;;12.00;2.70;;;;;;;;;;5053294;28;20021;-28
2023/08/12 13:01:54;;;;;;;10.63;2.33;;;;;;;;;;5053324;28;20024;-28
2023/08/12 13:04:20;;;;;;;10.63;2.50;;;;;;;;;;5053562;28;20025;-27
2023/08/12 13:06:46;;;;;;;9.70;2.50;;;;;;;;;;5053614;28;20384;-26
2023/08/12 13:09:11;;;;;;;11.55;2.33;;;;;;;;;;5053540;28;20024;-26
2023/08/12 13:11:36;;;;;;;6.90;2.10;;;;;;;;;;5053172;28;20056;-28
2023/08/12 13:14:02;;;;;;;13.45;2.63;;;;;;;;;;5053688;28;20021;-27
2023/08/12 13:16:27;;;;;;;10.43;2.67;;;;;;;;;;5053060;28;20021;-28
2023/08/12 13:18:52;;;;;;;10.30;2.60;;;;;;;;;;5052962;28;20036;-27
2023/08/12 13:21:18;;;;;;;10.88;2.70;;;;;;;;;;5053705;28;20244;-27
2023/08/12 13:23:43;;;;;;;8.80;2.57;;;;;;;;;;5053516;28;20108;-27
2023/08/12 13:26:08;;;;;;;10.87;2.43;;;;;;;;;;5053705;28;20054;-27
2023/08/12 13:28:34;;;;;;;9.73;2.47;;;;;;;;;;5053140;28;20048;-27
2023/08/12 13:30:59;;;;;;;10.57;2.42;;;;;;;;;;5053057;28;20487;-27
2023/08/12 13:33:24;;;;;;;12.60;2.42;;;;;;;;;;5053496;28;20017;-27
2023/08/12 13:35:49;;;;;;;8.03;2.27;;;;;;;;;;5053087;28;20045;-28
2023/08/12 13:38:15;;;;;;;10.50;2.50;;;;;;;;;;5053367;28;20037;-28
2023/08/12 13:40:40;;;;;;;11.50;2.50;;;;;;;;;;5053740;28;20108;-28
2023/08/12 13:43:05;;;;;;;9.60;2.43;;;;;;;;;;5053389;28;20103;-27
2023/08/12 13:45:30;;;;;;;11.63;2.77;;;;;;;;;;5053171;28;20021;-28
2023/08/12 13:47:55;;;;;;;11.27;2.50;;;;;;;;;;5054015;28;20335;-27
2023/08/12 13:50:21;;;;;;;9.37;2.90;;;;;;;;;;5053196;28;20078;-27
2023/08/12 13:52:50;;;;;;;11.37;2.70;;;;;;;;;;5053150;28;20259;-27
2023/08/12 13:55:15;;;;;;;11.32;2.45;;;;;;;;;;5055243;28;20287;-27
2023/08/12 13:57:40;;;;;;;10.20;2.33;;;;;;;;;;5055375;28;20423;-27
2023/08/12 14:00:09;;;;;;;11.37;2.50;;;;;;;;;;5056637;28;20326;-27
2023/08/12 14:02:35;;;;;;;11.77;2.78;;;;;;;;;;5056819;28;20020;-26
2023/08/12 14:05:01;;;;;;;7.85;2.50;;;;;;;;;;5056425;28;20013;-26
2023/08/12 14:07:26;;;;;;;13.67;2.30;;;;;;;;;;5056434;28;20025;-27
2023/08/12 14:09:51;;;;;;;15.07;2.53;;;;;;;;;;5056705;28;20255;-27
2023/08/12 14:12:16;;;;;;;8.10;2.25;;;;;;;;;;5056378;28;20284;-27
2023/08/12 14:14:42;;;;;;;10.00;2.20;;;;;;;;;;5056328;28;20029;-26
2023/08/12 14:17:07;;;;;;;15.05;2.80;;;;;;;;;;5056261;28;20464;-27
2023/08/12 14:19:32;;;;;;;10.80;2.50;;;;;;;;;;5056224;28;20020;-27
2023/08/12 14:21:57;;;;;;;13.80;2.80;;;;;;;;;;5056733;28;20263;-26